Time,TemperatureF,DewpointF,PressureIn,WindDirection,WindDirectionDegrees,WindSpeedMPH,WindSpeedGustMPH,Humidity,HourlyPrecipIn,Conditions,Clouds,dailyrainin,SolarRadiationWatts/m^2,SoftwareType,DateUTC
2013-10-17 00:12:00,73.1,71.0,29.96,NE,42,2.0,3.0,93,0.00,,,0.00,0,weatherlink.com 1.10,2013-10-17 04:12:00,
2013-10-17 00:27:00,72.9,71.0,29.95,NE,42,2.0,3.0,94,0.00,,,0.00,0,weatherlink.com 1.10,2013-10-17 04:27:00,
2013-10-17 00:42:00,72.7,71.0,29.95,NE,42,0.0,2.0,94,0.00,,,0.00,0,weatherlink.com 1.10,2013-10-17 04:42:00,
2013-10-17 00:57:00,72.4,71.0,29.95,NE,34,0.0,3.0,94,0.00,,,0.00,0,weatherlink.com 1.10,2013-10-17 04:57:00,
2013-10-17 01:12:00,72.1,70.0,29.95,NE,34,0.0,0.0,94,0.00,,,0.00,0,weatherlink.com 1.10,2013-10-17 05:12:00,
2013-10-17 01:27:00,71.9,70.0,29.94,NE,34,0.0,0.0,94,0.00,,,0.00,0,weatherlink.com 1.10,2013-10-17 05:27:00,
2013-10-17 01:42:00,71.6,70.0,29.94,NE,34,0.0,0.0,95,0.00,,,0.00,0,weatherlink.com 1.10,2013-10-17 05:42:00,
2013-10-17 01:57:00,71.4,70.0,29.95,NE,34,0.0,0.0,95,0.00,,,0.00,0,weatherlink.com 1.10,2013-10-17 05:57:00,
2013-10-17 02:12:00,71.2,70.0,29.95,NE,34,0.0,0.0,95,0.00,,,0.00,0,weatherlink.com 1.10,2013-10-17 06:12:00,
2013-10-17 02:27:00,71.1,70.0,29.94,NE,34,0.0,0.0,95,0.00,,,0.00,0,weatherlink.com 1.10,2013-10-17 06:27:00,
2013-10-17 02:42:00,70.8,69.0,29.93,NE,34,0.0,0.0,95,0.00,,,0.00,0,weatherlink.com 1.10,2013-10-17 06:42:00,
2013-10-17 02:57:00,70.4,69.0,29.93,NE,34,0.0,0.0,95,0.00,,,0.00,0,weatherlink.com 1.10,2013-10-17 06:57:00,
2013-10-17 03:12:00,70.1,69.0,29.93,NE,34,0.0,0.0,95,0.00,,,0.00,0,weatherlink.com 1.10,2013-10-17 07:12:00,
2013-10-17 03:27:00,70.0,69.0,29.93,NE,34,0.0,0.0,96,0.00,,,0.00,0,weatherlink.com 1.10,2013-10-17 07:27:00,
2013-10-17 03:42:00,69.7,69.0,29.93,NE,34,0.0,0.0,96,0.00,,,0.00,0,weatherlink.com 1.10,2013-10-17 07:42:00,
2013-10-17 03:57:00,69.7,69.0,29.93,NE,34,0.0,0.0,96,0.00,,,0.00,0,weatherlink.com 1.10,2013-10-17 07:57:00,
2013-10-17 04:12:00,69.5,68.0,29.93,NE,34,0.0,0.0,96,0.00,,,0.00,0,weatherlink.com 1.10,2013-10-17 08:12:00,
2013-10-17 04:27:00,69.5,68.0,29.93,NE,34,0.0,0.0,96,0.00,,,0.00,0,weatherlink.com 1.10,2013-10-17 08:27:00,
2013-10-17 04:43:00,70.0,69.0,29.92,NE,34,0.0,0.0,96,0.00,,,0.00,0,weatherlink.com 1.10,2013-10-17 08:43:00,
2013-10-17 04:58:00,69.9,69.0,29.93,NE,34,0.0,0.0,96,0.00,,,0.00,0,weatherlink.com 1.10,2013-10-17 08:58:00,
2013-10-17 05:13:00,70.4,70.0,29.93,NE,34,0.0,0.0,97,0.00,,,0.00,0,weatherlink.com 1.10,2013-10-17 09:13:00,
2013-10-17 05:28:00,70.7,70.0,29.93,NE,34,0.0,0.0,97,0.00,,,0.00,0,weatherlink.com 1.10,2013-10-17 09:28:00,
2013-10-17 05:43:00,71.0,70.0,29.94,NE,34,0.0,0.0,97,0.00,,,0.00,0,weatherlink.com 1.10,2013-10-17 09:43:00,
2013-10-17 05:58:00,71.0,70.0,29.94,NE,34,0.0,0.0,97,0.00,,,0.00,0,weatherlink.com 1.10,2013-10-17 09:58:00,
2013-10-17 06:13:00,71.1,70.0,29.94,NE,34,0.0,0.0,97,0.00,,,0.00,0,weatherlink.com 1.10,2013-10-17 10:13:00,
2013-10-17 06:28:00,71.2,70.0,29.95,NE,34,0.0,0.0,97,0.00,,,0.00,0,weatherlink.com 1.10,2013-10-17 10:28:00,
2013-10-17 06:43:00,71.3,70.0,29.95,NE,34,0.0,0.0,97,0.00,,,0.00,0,weatherlink.com 1.10,2013-10-17 10:43:00,
2013-10-17 06:58:00,71.3,70.0,29.95,NE,34,0.0,0.0,97,0.00,,,0.00,0,weatherlink.com 1.10,2013-10-17 10:58:00,
2013-10-17 07:13:00,71.3,70.0,29.96,NE,34,0.0,2.0,97,0.00,,,0.00,0,weatherlink.com 1.10,2013-10-17 11:13:00,
2013-10-17 07:28:00,70.9,70.0,29.96,NE,34,0.0,0.0,96,0.00,,,0.00,0,weatherlink.com 1.10,2013-10-17 11:28:00,
2013-10-17 07:43:00,70.6,70.0,29.96,NE,34,0.0,2.0,96,0.00,,,0.00,12,weatherlink.com 1.10,2013-10-17 11:43:00,
2013-10-17 07:58:00,70.5,70.0,29.96,NE,34,0.0,0.0,97,0.00,,,0.00,30,weatherlink.com 1.10,2013-10-17 11:58:00,
2013-10-17 08:13:00,70.5,70.0,29.97,NE,34,0.0,2.0,97,0.00,,,0.00,51,weatherlink.com 1.10,2013-10-17 12:13:00,
2013-10-17 08:28:00,70.8,70.0,29.98,NE,34,0.0,1.0,97,0.00,,,0.00,93,weatherlink.com 1.10,2013-10-17 12:28:00,
2013-10-17 08:43:00,71.3,70.0,29.98,NE,34,0.0,2.0,97,0.00,,,0.00,123,weatherlink.com 1.10,2013-10-17 12:43:00,
2013-10-17 08:58:00,71.8,71.0,29.98,NE,34,0.0,1.0,97,0.00,,,0.00,221,weatherlink.com 1.10,2013-10-17 12:58:00,
2013-10-17 09:13:00,72.7,72.0,29.99,WNW,286,3.0,3.0,97,0.00,,,0.00,360,weatherlink.com 1.10,2013-10-17 13:13:00,
2013-10-17 09:28:00,73.8,73.0,29.99,WNW,292,2.0,4.0,96,0.00,,,0.00,362,weatherlink.com 1.10,2013-10-17 13:28:00,
2013-10-17 09:43:00,74.4,72.0,29.99,West,276,0.0,4.0,93,0.00,,,0.00,401,weatherlink.com 1.10,2013-10-17 13:43:00,
2013-10-17 09:58:00,75.8,73.0,29.99,WNW,284,0.0,3.0,91,0.00,,,0.00,425,weatherlink.com 1.10,2013-10-17 13:58:00,
2013-10-17 10:13:00,77.5,73.0,29.99,SW,229,1.0,3.0,86,0.00,,,0.00,487,weatherlink.com 1.10,2013-10-17 14:13:00,
2013-10-17 10:28:00,78.7,72.0,29.99,WNW,298,0.0,5.0,81,0.00,,,0.00,529,weatherlink.com 1.10,2013-10-17 14:28:00,
2013-10-17 10:43:00,80.0,73.0,29.99,SW,215,0.0,4.0,78,0.00,,,0.00,568,weatherlink.com 1.10,2013-10-17 14:43:00,
2013-10-17 10:58:00,80.6,72.0,29.99,West,276,3.0,7.0,76,0.00,,,0.00,603,weatherlink.com 1.10,2013-10-17 14:58:00,
2013-10-17 11:13:00,80.9,72.0,29.99,NNE,15,0.0,5.0,75,0.00,,,0.00,635,weatherlink.com 1.10,2013-10-17 15:13:00,
2013-10-17 11:28:00,81.3,73.0,29.99,NNW,343,1.0,4.0,75,0.00,,,0.00,668,weatherlink.com 1.10,2013-10-17 15:28:00,
2013-10-17 11:44:00,82.2,72.0,29.99,NW,307,1.0,8.0,71,0.00,,,0.00,694,weatherlink.com 1.10,2013-10-17 15:44:00,
2013-10-17 11:59:00,82.6,72.0,29.98,NNW,329,2.0,5.0,70,0.00,,,0.00,715,weatherlink.com 1.10,2013-10-17 15:59:00,
2013-10-17 12:14:00,82.4,70.0,29.98,NW,305,6.0,10.0,67,0.00,,,0.00,728,weatherlink.com 1.10,2013-10-17 16:14:00,
2013-10-17 12:29:00,83.9,70.0,29.98,NW,315,2.0,6.0,64,0.00,,,0.00,749,weatherlink.com 1.10,2013-10-17 16:29:00,
2013-10-17 12:44:00,84.1,71.0,29.97,NW,319,0.0,5.0,64,0.00,,,0.00,758,weatherlink.com 1.10,2013-10-17 16:44:00,
2013-10-17 12:59:00,85.0,70.0,29.96,SW,232,1.0,7.0,62,0.00,,,0.00,766,weatherlink.com 1.10,2013-10-17 16:59:00,
2013-10-17 13:14:00,85.6,69.0,29.95,SSE,155,1.0,7.0,58,0.00,,,0.00,784,weatherlink.com 1.10,2013-10-17 17:14:00,
2013-10-17 13:29:00,86.0,69.0,29.95,SSE,149,0.0,5.0,57,0.00,,,0.00,777,weatherlink.com 1.10,2013-10-17 17:29:00,
2013-10-17 13:44:00,86.6,70.0,29.94,West,277,0.0,7.0,57,0.00,,,0.00,782,weatherlink.com 1.10,2013-10-17 17:44:00,
2013-10-17 13:59:00,85.9,69.0,29.93,SW,236,1.0,4.0,57,0.00,,,0.00,775,weatherlink.com 1.10,2013-10-17 17:59:00,
2013-10-17 14:14:00,86.6,69.0,29.92,NW,312,0.0,5.0,55,0.00,,,0.00,726,weatherlink.com 1.10,2013-10-17 18:14:00,
2013-10-17 14:29:00,87.3,69.0,29.92,SE,129,3.0,8.0,54,0.00,,,0.00,728,weatherlink.com 1.10,2013-10-17 18:29:00,
2013-10-17 14:44:00,86.8,69.0,29.92,NW,316,1.0,5.0,55,0.00,,,0.00,694,weatherlink.com 1.10,2013-10-17 18:44:00,
2013-10-17 14:59:00,87.0,68.0,29.91,NW,315,0.0,2.0,54,0.00,,,0.00,128,weatherlink.com 1.10,2013-10-17 18:59:00,
2013-10-17 15:14:00,88.4,68.0,29.91,SW,222,0.0,5.0,51,0.00,,,0.00,675,weatherlink.com 1.10,2013-10-17 19:14:00,
2013-10-17 15:29:00,86.7,68.0,29.91,West,271,0.0,5.0,53,0.00,,,0.00,141,weatherlink.com 1.10,2013-10-17 19:29:00,
2013-10-17 15:44:00,87.0,68.0,29.90,South,186,2.0,3.0,54,0.00,,,0.00,547,weatherlink.com 1.10,2013-10-17 19:44:00,
2013-10-17 15:59:00,87.7,68.0,29.90,West,267,3.0,4.0,53,0.00,,,0.00,508,weatherlink.com 1.10,2013-10-17 19:59:00,
2013-10-17 16:14:00,88.6,69.0,29.90,West,278,2.0,4.0,52,0.00,,,0.00,455,weatherlink.com 1.10,2013-10-17 20:14:00,
2013-10-17 16:29:00,88.6,68.0,29.90,SSW,198,0.0,5.0,51,0.00,,,0.00,424,weatherlink.com 1.10,2013-10-17 20:29:00,
2013-10-17 16:44:00,88.1,68.0,29.90,SW,220,0.0,5.0,52,0.00,,,0.00,366,weatherlink.com 1.10,2013-10-17 20:44:00,
2013-10-17 16:59:00,88.7,68.0,29.90,SSW,213,1.0,5.0,50,0.00,,,0.00,318,weatherlink.com 1.10,2013-10-17 20:59:00,
2013-10-17 17:14:00,88.7,68.0,29.90,WNW,293,2.0,7.0,51,0.00,,,0.00,267,weatherlink.com 1.10,2013-10-17 21:14:00,
2013-10-17 17:29:00,87.6,68.0,29.90,SW,220,0.0,4.0,53,0.00,,,0.00,86,weatherlink.com 1.10,2013-10-17 21:29:00,
2013-10-17 17:44:00,86.4,68.0,29.89,NNW,348,0.0,2.0,55,0.00,,,0.00,56,weatherlink.com 1.10,2013-10-17 21:44:00,
2013-10-17 17:59:00,85.8,68.0,29.90,North,349,0.0,1.0,56,0.00,,,0.00,37,weatherlink.com 1.10,2013-10-17 21:59:00,
2013-10-17 18:29:00,84.8,69.0,29.90,North,349,0.0,2.0,59,0.00,,,0.00,19,weatherlink.com 1.10,2013-10-17 22:29:00,
2013-10-17 18:44:00,83.9,69.0,29.90,NNW,348,0.0,1.0,61,0.00,,,0.00,9,weatherlink.com 1.10,2013-10-17 22:44:00,
2013-10-17 18:59:00,82.9,69.0,29.91,North,349,0.0,0.0,63,0.00,,,0.00,0,weatherlink.com 1.10,2013-10-17 22:59:00,
2013-10-17 19:14:00,81.7,69.0,29.91,North,349,0.0,0.0,65,0.00,,,0.00,0,weatherlink.com 1.10,2013-10-17 23:14:00,
2013-10-17 19:29:00,80.5,69.0,29.91,NNW,348,0.0,0.0,68,0.00,,,0.00,0,weatherlink.com 1.10,2013-10-17 23:29:00,
2013-10-17 19:44:00,79.4,69.0,29.91,NNW,348,0.0,0.0,71,0.00,,,0.00,0,weatherlink.com 1.10,2013-10-17 23:44:00,
2013-10-17 19:59:00,78.6,71.0,29.91,NNW,348,0.0,0.0,78,0.00,,,0.00,0,weatherlink.com 1.10,2013-10-17 23:59:00,
2013-10-17 20:14:00,77.9,71.0,29.92,East,101,2.0,2.0,78,0.00,,,0.00,0,weatherlink.com 1.10,2013-10-18 00:14:00,
2013-10-17 20:29:00,78.2,72.0,29.93,NNE,15,1.0,4.0,81,0.00,,,0.00,0,weatherlink.com 1.10,2013-10-18 00:29:00,
2013-10-17 20:44:00,78.5,72.0,29.93,ESE,107,0.0,4.0,81,0.00,,,0.00,0,weatherlink.com 1.10,2013-10-18 00:44:00,
2013-10-17 20:59:00,78.6,72.0,29.93,East,91,0.0,3.0,81,0.00,,,0.00,0,weatherlink.com 1.10,2013-10-18 00:59:00,
2013-10-17 21:14:00,78.5,72.0,29.93,East,91,3.0,6.0,81,0.00,,,0.00,0,weatherlink.com 1.10,2013-10-18 01:14:00,
2013-10-17 21:29:00,78.2,72.0,29.94,SE,131,5.0,5.0,81,0.00,,,0.00,0,weatherlink.com 1.10,2013-10-18 01:29:00,
2013-10-17 21:44:00,77.6,72.0,29.95,SSE,149,3.0,6.0,82,0.00,,,0.00,0,weatherlink.com 1.10,2013-10-18 01:44:00,
2013-10-17 21:59:00,77.3,72.0,29.94,SE,125,2.0,7.0,83,0.00,,,0.00,0,weatherlink.com 1.10,2013-10-18 01:59:00,
2013-10-17 22:14:00,77.1,72.0,29.94,SE,125,0.0,5.0,83,0.00,,,0.00,0,weatherlink.com 1.10,2013-10-18 02:14:00,
2013-10-17 22:29:00,76.8,72.0,29.95,SE,130,1.0,4.0,84,0.00,,,0.00,0,weatherlink.com 1.10,2013-10-18 02:29:00,
2013-10-17 22:44:00,76.2,71.0,29.95,ESE,117,0.0,3.0,85,0.00,,,0.00,0,weatherlink.com 1.10,2013-10-18 02:44:00,
2013-10-17 22:59:00,75.8,71.0,29.95,ESE,117,0.0,1.0,86,0.00,,,0.00,0,weatherlink.com 1.10,2013-10-18 02:59:00,
2013-10-17 23:14:00,75.4,71.0,29.95,ESE,112,0.0,3.0,87,0.00,,,0.00,0,weatherlink.com 1.10,2013-10-18 03:14:00,
2013-10-17 23:29:00,75.1,71.0,29.95,ESE,112,0.0,0.0,88,0.00,,,0.00,0,weatherlink.com 1.10,2013-10-18 03:29:00,
2013-10-17 23:44:00,74.7,71.0,29.95,ESE,112,0.0,0.0,89,0.00,,,0.00,0,weatherlink.com 1.10,2013-10-18 03:44:00,
2013-10-17 23:59:00,74.2,71.0,29.94,ESE,112,0.0,0.0,89,0.00,,,0.00,0,weatherlink.com 1.10,2013-10-18 03:59:00,